Latest Weather Observations for Giles*

IDW60801

Issued at 7:53 pm WST Friday 4 September 2026 (issued every 10 minutes, with the page automatically refreshed every 10 minutes)

About weather observations | Map of weather stations | Latest weather observations for WA | Other Formats
Station Details ID: 013017 Name: GILES METEOROLOGICAL OFFICE Lat: -25.03 Lon: 128.30 Height: 598.0 m
Data from the previous 72 hours. | See also: Recent months at Giles*

* Giles observations are collected in the South Australia time zone, which includes daylight saving in the summer period. Therefore, Rain since 9am value is with respect to South Australia local time.

Date/Time
WST
Temp
°C
App
Temp
°C
Dew
Point
°C
Rel
Hum
%
Delta-T
°C
Wind Press
QNH
hPa
Press
MSL
hPa
Rain since
9am
mm
Dir  Spd
km/h
Gust
km/h
Spd
kts
Gust
kts
04/07:30pm 26.4 22.0 6.4 28 10.7 SSW 19 24 10 13 1018.8 1016.4 0.0
04/07:00pm 27.1 22.4 6.0 26 11.3 SW 20 28 11 15 1018.6 1016.2 0.0
04/06:33pm 27.6 22.3 5.2 24 11.9 SW 22 35 12 19 1017.7 1015.2 0.0
04/06:30pm 27.7 22.1 5.3 24 11.9 SW 24 37 13 20 1017.6 1015.1 0.0
04/06:19pm 27.8 20.1 5.4 24 11.9 SW 35 52 19 28 1017.3 1014.8 0.0
04/06:14pm 28.1 20.5 5.6 24 12.0 SW 35 52 19 28 1017.0 1014.6 0.0
04/06:00pm 29.9 24.7 3.8 19 13.7 WNW 20 44 11 24 1016.5 1014.0 0.0
04/05:30pm 29.5 26.1 4.2 20 13.3 WNW 11 15 6 8 1015.8 1013.3 0.0
04/05:00pm 30.5 24.9 3.5 18 14.1 NW 22 28 12 15 1015.4 1013.0 0.0
04/04:30pm 31.1 25.8 3.2 17 14.6 NW 20 30 11 16 1015.0 1012.5 0.0
04/04:00pm 31.5 25.5 3.5 17 14.7 NW 24 35 13 19 1014.7 1012.2 0.0
04/03:30pm 31.4 24.7 3.4 17 14.7 NW 28 37 15 20 1014.6 1012.1 0.0
04/03:00pm 31.7 24.1 2.8 16 15.0 NW 32 44 17 24 1014.6 1012.1 0.0
04/02:30pm 31.9 25.5 3.0 16 15.1 NW 26 39 14 21 1014.6 1012.1 0.0
04/02:00pm 32.3 25.0 2.4 15 15.5 NW 30 44 16 24 1014.6 1012.1 0.0
04/01:48pm 32.0 23.3 2.1 15 15.4 NW 37 52 20 28 1014.7 1012.2 0.0
04/01:30pm 32.7 25.1 2.7 15 15.7 NW 32 50 17 27 1014.6 1012.1 0.0
04/01:28pm 32.6 24.8 1.7 14 15.9 NW 32 50 17 27 1014.7 1012.2 0.0
04/01:15pm 33.0 25.2 2.0 14 16.0 NW 32 46 17 25 1014.9 1012.4 0.0
04/01:00pm 33.1 25.2 2.1 14 16.1 NW 33 57 18 31 1015.2 1012.8 0.0
04/12:46pm 32.0 23.7 2.1 15 15.4 NNW 35 57 19 31 1015.1 1012.7 0.0
04/12:40pm 31.8 23.5 2.0 15 15.3 NW 35 56 19 30 1015.3 1012.9 0.0
04/12:30pm 32.4 24.2 2.5 15 15.6 NW 35 50 19 27 1015.6 1013.1 0.0
04/12:28pm 32.2 23.9 2.3 15 15.5 NNW 35 50 19 27 1015.7 1013.2 0.0
04/12:08pm 32.2 23.4 1.3 14 15.7 NW 37 61 20 33 1015.7 1013.2 0.0
04/12:06pm 32.5 24.3 2.5 15 15.6 NNW 35 48 19 26 1015.9 1013.4 0.0
04/12:03pm 32.1 24.0 1.3 14 15.7 NNW 33 48 18 26 1015.9 1013.4 0.0
04/12:00pm 33.2 24.9 2.1 14 16.1 NW 35 50 19 27 1016.0 1013.5 0.0
04/11:55am 33.0 24.3 2.0 14 16.0 NW 37 50 20 27 1016.1 1013.6 0.0
04/11:40am 33.5 25.6 2.4 14 16.3 NW 33 52 18 28 1016.3 1013.8 0.0
04/11:34am 32.4 23.8 2.5 15 15.6 NW 37 50 20 27 1016.4 1013.9 0.0
04/11:30am 32.1 23.1 2.2 15 15.4 NW 39 54 21 29 1016.5 1014.0 0.0
04/11:09am 31.2 22.9 2.4 16 14.8 NNW 35 57 19 31 1016.9 1014.5 0.0
04/11:00am 31.6 23.4 2.7 16 15.0 NNW 35 48 19 26 1017.1 1014.7 0.0
04/10:49am 31.6 23.8 2.7 16 15.0 NNW 33 48 18 26 1017.5 1015.0 0.0
04/10:40am 31.3 23.4 2.5 16 14.9 NNW 33 48 18 26 1017.6 1015.1 0.0
04/10:30am 31.2 23.7 1.5 15 15.1 NNW 30 52 16 28 1017.8 1015.3 0.0
04/10:00am 30.5 24.3 1.9 16 14.5 NNW 24 32 13 17 1018.1 1015.7 0.0
04/09:30am 29.7 23.5 2.1 17 14.0 NNW 24 32 13 17 1018.4 1016.0 0.0
04/09:00am 28.5 21.4 1.1 17 13.6 N 28 39 15 21 1018.6 1016.2 0.0
04/08:30am 27.9 19.9 0.6 17 13.4 N 32 46 17 25 1018.4 1016.0 0.0
04/08:00am 26.6 19.8 1.1 19 12.5 NNW 26 37 14 20 1018.3 1015.9 0.0
04/07:30am 25.0 18.5 0.5 20 11.7 N 24 30 13 16 1018.0 1015.5 0.0
04/07:00am 24.7 18.3 0.9 21 11.4 N 24 33 13 18 1017.6 1015.1 0.0
04/06:30am 23.5 16.7 0.6 22 10.9 N 26 33 14 18 1017.1 1014.7 0.0
04/06:00am 23.7 17.6 0.7 22 10.9 N 22 30 12 16 1016.7 1014.3 0.0
04/05:30am 23.4 16.9 0.5 22 10.8 N 24 32 13 17 1016.5 1014.0 0.0
04/05:00am 23.6 17.9 0.7 22 10.9 N 20 28 11 15 1016.5 1014.0 0.0
04/04:30am 23.7 17.6 0.7 22 10.9 N 22 30 12 16 1016.2 1013.7 0.0
04/04:00am 23.8 18.1 0.8 22 11.0 N 20 30 11 16 1015.6 1013.1 0.0
04/03:30am 24.8 19.1 0.3 20 11.7 N 20 28 11 15 1015.8 1013.3 0.0
04/03:00am 25.1 19.0 0.6 20 11.8 N 22 30 12 16 1015.8 1013.3 0.0
04/02:30am 25.2 18.8 0.7 20 11.8 N 24 35 13 19 1015.9 1013.4 0.0
04/02:00am 24.3 18.7 1.2 22 11.1 N 20 30 11 16 1016.2 1013.7 0.0
04/01:30am 24.2 19.6 1.8 23 10.9 NNW 15 20 8 11 1016.3 1013.8 0.0
04/01:00am 24.3 19.0 1.9 23 10.9 N 19 22 10 12 1016.6 1014.2 0.0
04/12:30am 22.8 18.3 2.3 26 10.0 N 15 20 8 11 1016.9 1014.5 0.0
04/12:00am 23.2 19.1 2.1 25 10.3 NNW 13 17 7 9 1017.1 1014.7 0.0
 
Date/Time
WST
Temp
°C
App
Temp
°C
Dew
Point
°C
Rel
Hum
%
Delta-T
°C
Wind Press
QNH
hPa
Press
MSL
hPa
Rain since
9am
mm
Dir  Spd
km/h
Gust
km/h
Spd
kts
Gust
kts
03/11:30pm 23.1 19.4 2.6 26 10.1 NNW 11 13 6 7 1017.5 1015.0 0.0
03/11:00pm 23.2 19.2 2.7 26 10.1 NW 13 13 7 7 1017.7 1015.2 0.0
03/10:30pm 23.6 19.5 2.4 25 10.4 NNW 13 13 7 7 1017.9 1015.4 0.0
03/10:00pm 23.5 20.2 2.4 25 10.3 NW 9 13 5 7 1018.1 1015.7 0.0
03/09:30pm 22.9 19.6 2.4 26 10.0 NW 9 11 5 6 1018.2 1015.8 0.0
03/09:00pm 25.0 21.6 1.8 22 11.4 NNE 9 13 5 7 1018.2 1015.8 0.0
03/08:30pm 24.8 21.1 2.3 23 11.1 N 11 15 6 8 1018.3 1015.9 0.0
03/08:00pm 25.2 21.4 2.0 22 11.4 N 11 13 6 7 1018.4 1016.0 0.0
03/07:30pm 26.0 21.9 2.0 21 11.9 N 13 15 7 8 1018.2 1015.8 0.0
03/07:00pm 27.3 23.0 0.9 18 12.9 N 13 17 7 9 1018.0 1015.5 0.0
03/06:30pm 27.6 23.3 1.2 18 13.0 N 13 15 7 8 1017.7 1015.2 0.0
03/06:00pm 28.3 24.1 1.7 18 13.3 N 13 17 7 9 1017.3 1014.8 0.0
03/05:30pm 29.3 24.6 0.9 16 14.1 NNW 15 19 8 10 1017.0 1014.6 0.0
03/05:00pm 30.2 25.1 0.7 15 14.7 NNW 17 24 9 13 1016.7 1014.3 0.0
03/04:30pm 30.4 24.8 0.9 15 14.7 N 20 26 11 14 1016.4 1013.9 0.0
03/04:00pm 31.7 25.7 1.0 14 15.5 N 22 33 12 18 1016.2 1013.7 0.0
03/03:30pm 30.7 24.3 1.1 15 14.9 N 24 33 13 18 1016.2 1013.7 0.0
03/03:00pm 31.0 24.5 0.4 14 15.2 N 24 35 13 19 1016.2 1013.7 0.0
03/02:30pm 32.6 25.9 1.7 14 15.9 NNW 26 35 14 19 1016.2 1013.7 0.0
03/02:00pm 32.2 26.2 1.3 14 15.7 NNW 22 35 12 19 1016.4 1013.9 0.0
03/01:30pm 32.7 26.4 1.7 14 15.9 NNW 24 37 13 20 1016.8 1014.4 0.0
03/01:00pm 32.5 25.7 0.6 13 16.1 N 26 41 14 22 1017.1 1014.7 0.0
03/12:30pm 31.9 25.5 1.1 14 15.6 NNW 24 39 13 21 1017.7 1015.2 0.0
03/12:00pm 30.8 24.8 1.2 15 14.9 N 22 35 12 19 1018.2 1015.8 0.0
03/11:30am 30.4 23.8 1.8 16 14.5 NNW 26 41 14 22 1018.7 1016.3 0.0
03/11:15am 30.2 23.1 1.6 16 14.5 NNW 28 37 15 20 1019.1 1016.6 0.0
03/11:01am 30.5 23.5 1.9 16 14.6 NNW 28 46 15 25 1019.3 1016.8 0.0
03/11:00am 30.4 22.9 0.9 15 14.7 NNW 30 46 16 25 1019.3 1016.8 0.0
03/10:30am 30.9 24.6 1.3 15 14.9 NNW 24 37 13 20 1019.7 1017.3 0.0
03/10:00am 30.0 22.5 1.5 16 14.3 N 30 39 16 21 1020.0 1017.6 0.0
03/09:30am 28.8 21.4 2.1 18 13.5 N 30 37 16 20 1020.2 1017.8 0.0
03/09:00am 27.2 20.3 2.3 20 12.5 N 28 37 15 20 1020.4 1018.0 0.0
03/08:30am 26.9 20.7 2.1 20 12.4 NNW 24 32 13 17 1020.5 1018.1 0.0
03/08:00am 26.1 20.7 2.7 22 11.7 NNW 20 28 11 15 1020.6 1018.2 0.0
03/07:30am 25.7 22.2 3.6 24 11.2 N 11 15 6 8 1020.3 1017.9 0.0
03/07:00am 25.3 22.4 4.4 26 10.7 N 9 13 5 7 1020.1 1017.7 0.0
03/06:30am 22.2 19.6 4.3 31 9.0 NNE 7 9 4 5 1019.8 1017.4 0.0
03/06:00am 20.9 19.1 3.6 32 8.5 NNE 2 9 1 5 1019.6 1017.2 0.0
03/05:30am 20.0 18.6 3.3 33 8.1 CALM 0 0 0 0 1019.6 1017.2 0.0
03/05:00am 17.8 16.1 4.0 40 6.7 NNE 2 6 1 3 1019.2 1016.7 0.0
03/04:30am 20.7 17.9 3.4 32 8.5 NNE 7 13 4 7 1018.7 1016.3 0.0
03/04:00am 20.8 19.0 3.5 32 8.5 NW 2 9 1 5 1018.2 1015.8 0.0
03/03:30am 19.7 16.3 3.8 35 7.8 NNW 11 20 6 11 1018.2 1015.8 0.0
03/03:00am 20.7 17.3 3.9 33 8.3 NW 11 13 6 7 1017.7 1015.2 0.0
03/02:30am 22.5 18.6 3.6 29 9.4 WSW 13 19 7 10 1018.1 1015.7 0.0
03/02:00am 24.5 20.8 2.6 24 10.8 NNW 11 13 6 7 1017.6 1015.1 0.0
03/01:30am 23.4 19.5 3.4 27 10.0 N 13 13 7 7 1017.7 1015.2 0.0
03/01:00am 23.4 19.8 2.8 26 10.2 N 11 15 6 8 1017.9 1015.4 0.0
03/12:30am 23.4 19.4 2.8 26 10.2 NNW 13 15 7 8 1018.0 1015.5 0.0
03/12:00am 23.9 19.9 2.7 25 10.5 N 13 15 7 8 1018.2 1015.8 0.0
 
Date/Time
WST
Temp
°C
App
Temp
°C
Dew
Point
°C
Rel
Hum
%
Delta-T
°C
Wind Press
QNH
hPa
Press
MSL
hPa
Rain since
9am
mm
Dir  Spd
km/h
Gust
km/h
Spd
kts
Gust
kts
02/11:30pm 23.9 20.0 3.2 26 10.3 N 13 15 7 8 1018.4 1016.0 0.0
02/11:00pm 24.2 21.1 3.5 26 10.4 NNW 9 11 5 6 1018.7 1016.3 0.0
02/10:30pm 24.5 21.3 3.2 25 10.7 NNW 9 11 5 6 1018.9 1016.5 0.0
02/10:00pm 24.9 21.7 3.0 24 10.9 N 9 11 5 6 1019.2 1016.7 0.0
02/09:30pm 24.9 21.4 3.5 25 10.8 N 11 13 6 7 1019.5 1017.0 0.0
02/09:00pm 25.0 21.6 4.2 26 10.6 N 11 13 6 7 1019.7 1017.3 0.0
02/08:30pm 25.3 21.4 3.3 24 11.1 N 13 13 7 7 1019.8 1017.4 0.0
02/08:00pm 25.1 21.3 3.7 25 10.8 NNW 13 13 7 7 1019.8 1017.4 0.0
02/07:30pm 25.9 22.0 3.2 23 11.5 NNW 13 15 7 8 1019.7 1017.3 0.0
02/07:00pm 26.2 22.3 3.5 23 11.5 NNW 13 13 7 7 1019.4 1016.9 0.0
02/06:30pm 26.1 22.6 3.4 23 11.5 N 11 13 6 7 1019.1 1016.6 0.0
02/06:00pm 26.8 22.8 2.7 21 12.1 NNW 13 15 7 8 1018.7 1016.3 0.0
02/05:30pm 28.2 24.5 2.4 19 13.1 NNW 11 13 6 7 1018.3 1015.9 0.0
02/05:00pm 29.8 24.8 1.3 16 14.3 NNW 17 20 9 11 1018.1 1015.7 0.0
02/04:30pm 31.0 26.0 1.4 15 15.0 NW 17 20 9 11 1017.9 1015.4 0.0
02/04:00pm 31.6 25.6 0.9 14 15.5 NW 22 32 12 17 1017.8 1015.3 0.0
02/03:30pm 31.8 25.8 1.0 14 15.6 NW 22 43 12 23 1017.8 1015.3 0.0
02/03:00pm 32.2 25.1 1.3 14 15.7 NW 28 37 15 20 1017.8 1015.3 0.0
02/02:30pm 32.6 26.5 2.6 15 15.6 NW 24 35 13 19 1018.0 1015.5 0.0
02/02:00pm 32.5 26.0 2.5 15 15.6 NW 26 43 14 23 1018.3 1015.9 0.0
02/01:30pm 31.7 26.2 1.9 15 15.3 WNW 20 33 11 18 1018.5 1016.1 0.0
02/01:00pm 31.8 25.2 2.0 15 15.3 NW 26 39 14 21 1018.9 1016.5 0.0
02/12:43pm 31.6 24.6 1.8 15 15.2 NW 28 37 15 20 1019.3 1016.8 0.0
02/12:30pm 31.3 24.2 1.6 15 15.1 NW 28 46 15 25 1019.5 1017.0 0.0
02/12:29pm 31.7 24.8 2.8 16 15.0 NW 28 46 15 25 1019.5 1017.0 0.0
02/12:24pm 31.8 24.8 2.0 15 15.3 NW 28 43 15 23 1019.5 1017.0 0.0
02/12:13pm 31.5 24.6 2.7 16 14.9 NNW 28 46 15 25 1019.7 1017.3 0.0
02/12:00pm 31.4 24.5 2.6 16 14.9 NNW 28 41 15 22 1019.9 1017.5 0.0
02/11:30am 31.0 24.6 3.1 17 14.5 NNW 26 39 14 21 1020.5 1018.1 0.0
02/11:00am 30.6 24.0 1.9 16 14.6 NNW 26 35 14 19 1021.2 1018.8 0.0
02/10:30am 30.4 23.9 2.6 17 14.3 NNW 26 37 14 20 1021.7 1019.3 0.0
02/10:00am 29.2 23.6 3.2 19 13.4 NNW 22 33 12 18 1022.1 1019.7 0.0
02/09:30am 28.7 23.5 3.5 20 13.0 NNW 20 28 11 15 1022.3 1019.9 0.0
02/09:00am 27.8 22.2 3.5 21 12.5 NW 22 35 12 19 1022.5 1020.2 0.0
02/08:30am 26.6 21.4 3.8 23 11.7 N 20 30 11 16 1022.4 1020.0 0.0
02/08:00am 26.0 20.9 3.3 23 11.5 NNW 19 24 10 13 1022.3 1019.9 0.0
02/07:30am 25.8 20.7 3.1 23 11.4 NNW 19 22 10 12 1022.0 1019.6 0.0
02/07:00am 24.5 21.2 4.3 27 10.3 W 11 15 6 8 1021.8 1019.4 0.0
02/06:30am 22.1 18.8 4.7 32 8.8 W 11 13 6 7 1021.6 1019.2 0.0
02/06:00am 20.0 16.2 4.1 35 7.8 W 13 15 7 8 1021.4 1019.0 0.0
02/05:30am 19.3 15.1 3.9 36 7.5 W 15 15 8 8 1021.1 1018.7 0.0
02/05:00am 19.2 15.1 4.2 37 7.4 W 15 15 8 8 1020.7 1018.3 0.0
02/04:30am 20.1 16.3 3.8 34 8.0 W 13 15 7 8 1020.3 1017.9 0.0
02/04:00am 20.8 17.7 3.5 32 8.5 W 9 13 5 7 1020.1 1017.7 0.0
02/03:30am 21.4 17.9 3.6 31 8.8 W 11 13 6 7 1019.8 1017.4 0.0
02/03:00am 20.9 18.2 3.6 32 8.5 W 7 9 4 5 1019.7 1017.3 0.0
02/02:30am 22.2 18.7 3.3 29 9.3 W 11 13 6 7 1019.9 1017.5 0.0
02/02:00am 23.5 19.5 2.9 26 10.2 W 13 17 7 9 1019.9 1017.5 0.0
02/01:30am 24.5 19.7 2.6 24 10.8 NNW 17 20 9 11 1019.5 1017.0 0.0
02/01:00am 24.9 20.6 3.0 24 10.9 N 15 20 8 11 1019.6 1017.2 0.0
02/12:30am 24.9 20.6 3.0 24 11.0 N 15 17 8 9 1019.9 1017.5 0.0
02/12:00am 25.5 21.1 2.9 23 11.3 N 15 19 8 10 1020.3 1017.9 0.0
 
Date/Time
WST
Temp
°C
App
Temp
°C
Dew
Point
°C
Rel
Hum
%
Delta-T
°C
Wind Press
QNH
hPa
Press
MSL
hPa
Rain since
9am
mm
Dir  Spd
km/h
Gust
km/h
Spd
kts
Gust
kts
01/11:30pm 25.9 21.1 2.6 22 11.7 N 17 19 9 10 1020.4 1018.0 0.0
01/11:00pm 26.3 21.9 2.9 22 11.8 N 15 20 8 11 1020.6 1018.2 0.0
01/10:30pm 26.6 21.8 2.5 21 12.1 N 17 20 9 11 1020.7 1018.3 0.0
01/10:00pm 26.9 22.1 2.7 21 12.2 N 17 20 9 11 1020.9 1018.4 0.0
01/09:30pm 26.6 22.3 3.2 22 11.9 N 15 22 8 12 1021.0 1018.5 0.0
01/09:25pm 26.5 22.5 3.1 22 11.9 N 13 19 7 10 1021.0 1018.5 0.0
01/09:05pm 24.9 22.5 5.2 28 10.3 NW 7 15 4 8 1021.2 1018.8 0.0
01/09:00pm 24.8 22.7 5.6 29 10.0 N 6 15 3 8 1021.3 1018.9 0.0
01/08:30pm 26.1 23.0 3.4 23 11.5 NNE 9 11 5 6 1021.2 1018.8 0.0
01/08:00pm 25.9 22.8 3.8 24 11.3 N 9 11 5 6 1021.3 1018.9 0.0

Other formats

Comma delimited format used in spreadsheet applications
http://www.bom.gov.au/fwo/IDW60801/IDW60801.94461.axf

JavaScript Object Notation format (JSON) in row-major order
http://www.bom.gov.au/fwo/IDW60801/IDW60801.94461.json

Data quality

Most of these data are generated automatically and are frequently updated. Quality checks on data are not normally performed. It is possible for incorrect values to appear. Refer to information at About Latest Weather Observations and please check the disclaimer before using these data.